sensor_id;sensor_type;location;lat;lon;timestamp;pressure;altitude;pressure_sealevel;temperature;humidity
48204;BME280;33994;50.998;5.864;2022-10-04T00:03:23;101850.19;;;10.31;93.12
48204;BME280;33994;50.998;5.864;2022-10-04T00:06:19;101848.41;;;10.29;93.19
48204;BME280;33994;50.998;5.864;2022-10-04T00:09:12;101856.28;;;10.27;93.15
48204;BME280;33994;50.998;5.864;2022-10-04T00:12:00;101859.75;;;10.28;93.15
48204;BME280;33994;50.998;5.864;2022-10-04T00:14:46;101865.84;;;10.28;93.22
48204;BME280;33994;50.998;5.864;2022-10-04T00:17:33;101858.00;;;10.25;93.29
48204;BME280;33994;50.998;5.864;2022-10-04T00:29:28;101861.50;;;10.24;93.08
48204;BME280;33994;50.998;5.864;2022-10-04T00:35:00;101851.91;;;10.23;93.03
48204;BME280;33994;50.998;5.864;2022-10-04T00:40:51;101852.78;;;10.19;93.02
48204;BME280;33994;50.998;5.864;2022-10-04T00:43:44;101854.50;;;10.20;93.25
48204;BME280;33994;50.998;5.864;2022-10-04T00:46:32;101854.53;;;10.23;93.08
48204;BME280;33994;50.998;5.864;2022-10-04T00:49:22;101847.56;;;10.23;93.18
48204;BME280;33994;50.998;5.864;2022-10-04T00:52:21;101851.88;;;10.21;92.95
48204;BME280;33994;50.998;5.864;2022-10-04T00:55:19;101851.00;;;10.15;93.17
48204;BME280;33994;50.998;5.864;2022-10-04T00:58:23;101846.69;;;10.18;93.18
48204;BME280;33994;50.998;5.864;2022-10-04T01:01:09;101845.78;;;10.21;93.20
48204;BME280;33994;50.998;5.864;2022-10-04T01:03:56;101840.56;;;10.24;92.91
48204;BME280;33994;50.998;5.864;2022-10-04T01:06:45;101836.22;;;10.25;92.88
48204;BME280;33994;50.998;5.864;2022-10-04T01:09:33;101829.25;;;10.23;92.87
48204;BME280;33994;50.998;5.864;2022-10-04T01:26:51;101844.03;;;10.12;93.16
48204;BME280;33994;50.998;5.864;2022-10-04T01:29:37;101845.75;;;10.06;93.42
48204;BME280;33994;50.998;5.864;2022-10-04T01:32:23;101837.88;;;10.01;93.55
48204;BME280;33994;50.998;5.864;2022-10-04T01:35:11;101825.69;;;9.98;93.68
48204;BME280;33994;50.998;5.864;2022-10-04T01:37:57;101825.69;;;9.98;93.73
48204;BME280;33994;50.998;5.864;2022-10-04T01:40:48;101822.19;;;9.98;93.83
48204;BME280;33994;50.998;5.864;2022-10-04T01:43:37;101812.59;;;9.98;93.90
48204;BME280;33994;50.998;5.864;2022-10-04T01:46:26;101810.88;;;10.01;93.90
48204;BME280;33994;50.998;5.864;2022-10-04T01:49:17;101818.72;;;10.01;93.76
48204;BME280;33994;50.998;5.864;2022-10-04T01:52:08;101811.75;;;9.98;93.72
48204;BME280;33994;50.998;5.864;2022-10-04T01:55:05;101803.88;;;9.93;93.85
48204;BME280;33994;50.998;5.864;2022-10-04T01:58:11;101817.81;;;9.89;93.92
48204;BME280;33994;50.998;5.864;2022-10-04T02:01:39;101818.69;;;9.84;94.03
48204;BME280;33994;50.998;5.864;2022-10-04T02:04:20;101816.03;;;9.82;94.18
48204;BME280;33994;50.998;5.864;2022-10-04T02:07:13;101809.09;;;9.84;94.10
48204;BME280;33994;50.998;5.864;2022-10-04T02:10:02;101797.75;;;9.82;94.23
48204;BME280;33994;50.998;5.864;2022-10-04T02:12:51;101788.19;;;9.84;94.14
48204;BME280;33994;50.998;5.864;2022-10-04T02:15:37;101786.41;;;9.79;94.10
48204;BME280;33994;50.998;5.864;2022-10-04T02:18:24;101781.19;;;9.74;94.18
48204;BME280;33994;50.998;5.864;2022-10-04T02:21:12;101782.00;;;9.62;94.36
48204;BME280;33994;50.998;5.864;2022-10-04T02:23:59;101782.00;;;9.58;94.72
48204;BME280;33994;50.998;5.864;2022-10-04T02:26:51;101777.63;;;9.55;95.02
48204;BME280;33994;50.998;5.864;2022-10-04T02:29:37;101768.94;;;9.58;95.08
48204;BME280;33994;50.998;5.864;2022-10-04T02:32:22;101765.47;;;9.62;94.91
48204;BME280;33994;50.998;5.864;2022-10-04T02:35:31;101758.50;;;9.64;94.62
48204;BME280;33994;50.998;5.864;2022-10-04T02:38:22;101756.75;;;9.60;94.27
48204;BME280;33994;50.998;5.864;2022-10-04T02:41:20;101761.97;;;9.54;94.36
48204;BME280;33994;50.998;5.864;2022-10-04T02:47:18;101749.75;;;9.51;94.61
48204;BME280;33994;50.998;5.864;2022-10-04T02:50:07;101754.09;;;9.51;94.47
48204;BME280;33994;50.998;5.864;2022-10-04T02:53:13;101754.94;;;9.43;94.40
48204;BME280;33994;50.998;5.864;2022-10-04T02:56:01;101751.44;;;9.41;94.35
48204;BME280;33994;50.998;5.864;2022-10-04T02:58:47;101747.94;;;9.36;94.60
48204;BME280;33994;50.998;5.864;2022-10-04T03:04:37;101743.56;;;9.34;94.66
48204;BME280;33994;50.998;5.864;2022-10-04T03:07:23;101736.63;;;9.34;94.54
48204;BME280;33994;50.998;5.864;2022-10-04T03:10:11;101738.34;;;9.31;94.68
48204;BME280;33994;50.998;5.864;2022-10-04T03:12:58;101742.69;;;9.30;94.70
48204;BME280;33994;50.998;5.864;2022-10-04T03:15:45;101737.47;;;9.29;94.68
48204;BME280;33994;50.998;5.864;2022-10-04T03:18:31;101730.50;;;9.29;94.81
48204;BME280;33994;50.998;5.864;2022-10-04T03:21:19;101731.38;;;9.31;94.67
48204;BME280;33994;50.998;5.864;2022-10-04T03:24:05;101727.03;;;9.33;94.62
48204;BME280;33994;50.998;5.864;2022-10-04T03:26:53;101723.59;;;9.34;94.33
48204;BME280;33994;50.998;5.864;2022-10-04T03:29:40;101713.13;;;9.34;94.12
48204;BME280;33994;50.998;5.864;2022-10-04T03:32:28;101708.75;;;9.32;93.86
48204;BME280;33994;50.998;5.864;2022-10-04T03:35:35;101700.91;;;9.29;93.69
48204;BME280;33994;50.998;5.864;2022-10-04T03:38:22;101697.41;;;9.25;93.71
48204;BME280;33994;50.998;5.864;2022-10-04T03:41:10;101693.88;;;9.17;93.84
48204;BME280;33994;50.998;5.864;2022-10-04T03:43:56;101692.09;;;9.10;93.91
48204;BME280;33994;50.998;5.864;2022-10-04T03:46:43;101679.03;;;9.05;94.20
48204;BME280;33994;50.998;5.864;2022-10-04T03:49:34;101685.09;;;9.01;94.45
48204;BME280;33994;50.998;5.864;2022-10-04T03:52:24;101685.06;;;8.99;94.49
48204;BME280;33994;50.998;5.864;2022-10-04T03:55:11;101685.06;;;8.95;94.56
48204;BME280;33994;50.998;5.864;2022-10-04T03:58:00;101692.00;;;8.94;94.69
48204;BME280;33994;50.998;5.864;2022-10-04T04:07:33;101665.91;;;8.90;94.98
48204;BME280;33994;50.998;5.864;2022-10-04T04:10:19;101672.84;;;8.88;94.92
48204;BME280;33994;50.998;5.864;2022-10-04T04:13:32;101680.63;;;8.77;94.92
48204;BME280;33994;50.998;5.864;2022-10-04T04:16:22;101671.00;;;8.70;95.05
48204;BME280;33994;50.998;5.864;2022-10-04T04:19:12;101664.03;;;8.67;95.24
48204;BME280;33994;50.998;5.864;2022-10-04T04:21:59;101663.13;;;8.65;95.52
48204;BME280;33994;50.998;5.864;2022-10-04T04:24:45;101663.13;;;8.64;95.67
48204;BME280;33994;50.998;5.864;2022-10-04T04:27:35;101671.84;;;8.63;95.82
48204;BME280;33994;50.998;5.864;2022-10-04T04:30:22;101668.38;;;8.68;95.80
48204;BME280;33994;50.998;5.864;2022-10-04T04:33:14;101664.94;;;8.69;95.78
48204;BME280;33994;50.998;5.864;2022-10-04T04:36:04;101665.81;;;8.74;95.55
48204;BME280;33994;50.998;5.864;2022-10-04T04:38:50;101659.75;;;8.77;95.25
48204;BME280;33994;50.998;5.864;2022-10-04T04:41:53;101655.38;;;8.76;95.08
48204;BME280;33994;50.998;5.864;2022-10-04T04:44:51;101649.28;;;8.71;94.96
48204;BME280;33994;50.998;5.864;2022-10-04T04:47:41;101652.69;;;8.65;95.03
48204;BME280;33994;50.998;5.864;2022-10-04T04:50:33;101658.75;;;8.61;95.26
48204;BME280;33994;50.998;5.864;2022-10-04T04:53:22;101669.19;;;8.60;95.39
48204;BME280;33994;50.998;5.864;2022-10-04T04:56:09;101663.97;;;8.58;95.26
48204;BME280;33994;50.998;5.864;2022-10-04T04:58:56;101661.34;;;8.55;95.51
48204;BME280;33994;50.998;5.864;2022-10-04T05:01:46;101661.31;;;8.52;95.52
48204;BME280;33994;50.998;5.864;2022-10-04T05:04:32;101657.00;;;8.54;95.66
48204;BME280;33994;50.998;5.864;2022-10-04T05:07:17;101657.88;;;8.56;95.79
48204;BME280;33994;50.998;5.864;2022-10-04T05:10:26;101662.16;;;8.49;95.49
48204;BME280;33994;50.998;5.864;2022-10-04T05:13:14;101656.09;;;8.50;95.74
48204;BME280;33994;50.998;5.864;2022-10-04T05:16:01;101636.09;;;8.49;95.70
48204;BME280;33994;50.998;5.864;2022-10-04T05:18:47;101639.56;;;8.48;95.87
48204;BME280;33994;50.998;5.864;2022-10-04T05:21:34;101636.97;;;8.47;95.89
48204;BME280;33994;50.998;5.864;2022-10-04T05:24:22;101640.47;;;8.50;96.07
48204;BME280;33994;50.998;5.864;2022-10-04T05:27:28;101648.25;;;8.47;95.83
48204;BME280;33994;50.998;5.864;2022-10-04T05:30:42;101651.72;;;8.43;95.94
48204;BME280;33994;50.998;5.864;2022-10-04T05:33:37;101653.44;;;8.44;96.15
48204;BME280;33994;50.998;5.864;2022-10-04T05:36:38;101644.78;;;8.50;96.14
48204;BME280;33994;50.998;5.864;2022-10-04T05:39:31;101644.81;;;8.51;95.89
48204;BME280;33994;50.998;5.864;2022-10-04T05:42:23;101644.81;;;8.51;95.61
48204;BME280;33994;50.998;5.864;2022-10-04T05:45:15;101637.00;;;8.51;95.48
48204;BME280;33994;50.998;5.864;2022-10-04T05:48:05;101643.06;;;8.50;95.32
48204;BME280;33994;50.998;5.864;2022-10-04T05:50:51;101640.47;;;8.52;95.08
48204;BME280;33994;50.998;5.864;2022-10-04T05:53:37;101632.66;;;8.57;95.36
48204;BME280;33994;50.998;5.864;2022-10-04T06:06:00;101618.72;;;8.48;95.35
48204;BME280;33994;50.998;5.864;2022-10-04T06:09:12;101617.00;;;8.50;95.63
48204;BME280;33994;50.998;5.864;2022-10-04T06:12:16;101622.22;;;8.50;95.46
48204;BME280;33994;50.998;5.864;2022-10-04T06:21:30;101622.25;;;8.57;95.48
48204;BME280;33994;50.998;5.864;2022-10-04T06:24:25;101632.69;;;8.60;95.33
48204;BME280;33994;50.998;5.864;2022-10-04T06:30:14;101654.47;;;8.68;95.17
48204;BME280;33994;50.998;5.864;2022-10-04T06:39:55;101662.47;;;8.98;94.36
48204;BME280;33994;50.998;5.864;2022-10-04T06:49:02;101665.16;;;9.17;92.93
48204;BME280;33994;50.998;5.864;2022-10-04T06:52:52;101672.13;;;9.19;92.71
48204;BME280;33994;50.998;5.864;2022-10-04T06:55:36;101667.81;;;9.23;92.53
48204;BME280;33994;50.998;5.864;2022-10-04T07:04:38;101660.06;;;9.43;92.03
48204;BME280;33994;50.998;5.864;2022-10-04T07:07:33;101654.03;;;9.58;91.38
48204;BME280;33994;50.998;5.864;2022-10-04T07:10:28;101656.66;;;9.73;91.02
48204;BME280;33994;50.998;5.864;2022-10-04T07:16:41;101642.75;;;9.98;90.48
48204;BME280;33994;50.998;5.864;2022-10-04T07:19:36;101645.38;;;10.17;90.06
48204;BME280;33994;50.998;5.864;2022-10-04T07:22:28;101660.19;;;10.30;89.15
48204;BME280;33994;50.998;5.864;2022-10-04T07:25:26;101653.19;;;10.44;88.33
48204;BME280;33994;50.998;5.864;2022-10-04T07:28:19;101644.47;;;10.58;87.95
48204;BME280;33994;50.998;5.864;2022-10-04T07:31:30;101645.31;;;10.63;87.51
48204;BME280;33994;50.998;5.864;2022-10-04T07:34:28;101643.56;;;10.62;87.02
48204;BME280;33994;50.998;5.864;2022-10-04T07:37:15;101650.53;;;10.63;87.56
48204;BME280;33994;50.998;5.864;2022-10-04T07:40:08;101644.44;;;10.65;86.94
48204;BME280;33994;50.998;5.864;2022-10-04T07:43:11;101644.44;;;10.65;87.05
48204;BME280;33994;50.998;5.864;2022-10-04T07:46:16;101647.91;;;10.66;86.92
48204;BME280;33994;50.998;5.864;2022-10-04T07:49:11;101629.59;;;10.72;86.92
48204;BME280;33994;50.998;5.864;2022-10-04T07:56:09;101627.81;;;10.86;87.08
48204;BME280;33994;50.998;5.864;2022-10-04T07:58:53;101629.53;;;10.97;87.07
48204;BME280;33994;50.998;5.864;2022-10-04T08:11:29;101642.50;;;11.29;86.33
48204;BME280;33994;50.998;5.864;2022-10-04T08:20:37;101644.97;;;11.58;86.02
48204;BME280;33994;50.998;5.864;2022-10-04T08:32:43;101640.19;;;12.12;84.36
48204;BME280;33994;50.998;5.864;2022-10-04T08:35:37;101648.00;;;12.24;83.57
48204;BME280;33994;50.998;5.864;2022-10-04T08:38:34;101643.56;;;12.31;83.76
48204;BME280;33994;50.998;5.864;2022-10-04T09:22:18;101613.50;;;13.33;78.34
48204;BME280;33994;50.998;5.864;2022-10-04T09:25:25;101611.63;;;13.42;77.96
48204;BME280;33994;50.998;5.864;2022-10-04T09:28:34;101604.53;;;13.50;77.18
48204;BME280;33994;50.998;5.864;2022-10-04T09:31:56;101611.53;;;13.54;76.41
48204;BME280;33994;50.998;5.864;2022-10-04T09:47:42;101618.22;;;13.73;74.05
48204;BME280;33994;50.998;5.864;2022-10-04T09:54:09;101614.66;;;13.77;72.86
48204;BME280;33994;50.998;5.864;2022-10-04T09:57:54;101610.22;;;13.81;72.66
48204;BME280;33994;50.998;5.864;2022-10-04T10:00:18;101620.63;;;13.87;73.18
48204;BME280;33994;50.998;5.864;2022-10-04T10:16:05;101615.84;;;14.10;72.80
48204;BME280;33994;50.998;5.864;2022-10-04T10:25:05;101605.09;;;14.24;71.75
48204;BME280;33994;50.998;5.864;2022-10-04T10:40:53;101591.66;;;14.40;70.66
48204;BME280;33994;50.998;5.864;2022-10-04T10:43:57;101589.91;;;14.40;70.92
48204;BME280;33994;50.998;5.864;2022-10-04T10:47:06;101595.16;;;14.42;70.45
48204;BME280;33994;50.998;5.864;2022-10-04T10:50:18;101589.78;;;14.46;70.56
48204;BME280;33994;50.998;5.864;2022-10-04T10:59:30;101580.75;;;14.59;69.84
48204;BME280;33994;50.998;5.864;2022-10-04T11:05:24;101565.75;;;14.63;70.23
48204;BME280;33994;50.998;5.864;2022-10-04T11:30:23;101572.16;;;14.95;67.44
48204;BME280;33994;50.998;5.864;2022-10-04T11:39:25;101569.53;;;14.95;67.57
48204;BME280;33994;50.998;5.864;2022-10-04T11:42:25;101567.78;;;14.95;67.68
48204;BME280;33994;50.998;5.864;2022-10-04T12:00:51;101551.53;;;15.15;66.20
48204;BME280;33994;50.998;5.864;2022-10-04T12:04:14;101551.38;;;15.23;66.04
48204;BME280;33994;50.998;5.864;2022-10-04T12:10:13;101543.28;;;15.30;66.14
48204;BME280;33994;50.998;5.864;2022-10-04T12:13:25;101537.03;;;15.35;66.38
48204;BME280;33994;50.998;5.864;2022-10-04T12:31:44;101524.66;;;15.38;66.65
48204;BME280;33994;50.998;5.864;2022-10-04T12:37:38;101520.91;;;15.47;66.91
48204;BME280;33994;50.998;5.864;2022-10-04T13:07:33;101479.41;;;15.56;66.81
48204;BME280;33994;50.998;5.864;2022-10-04T13:10:34;101479.34;;;15.58;66.57
48204;BME280;33994;50.998;5.864;2022-10-04T13:17:16;101470.31;;;15.68;65.39
48204;BME280;33994;50.998;5.864;2022-10-04T13:23:27;101473.44;;;15.83;65.55
48204;BME280;33994;50.998;5.864;2022-10-04T13:29:59;101461.16;;;15.83;64.98
48204;BME280;33994;50.998;5.864;2022-10-04T13:32:43;101454.13;;;15.82;65.17
48204;BME280;33994;50.998;5.864;2022-10-04T13:38:45;101452.47;;;15.79;65.61
48204;BME280;33994;50.998;5.864;2022-10-04T13:45:14;101440.00;;;15.85;65.87
48204;BME280;33994;50.998;5.864;2022-10-04T13:48:19;101429.38;;;15.88;65.80
48204;BME280;33994;50.998;5.864;2022-10-04T13:51:24;101425.75;;;15.92;66.12
48204;BME280;33994;50.998;5.864;2022-10-04T13:54:38;101426.56;;;15.94;66.41
48204;BME280;33994;50.998;5.864;2022-10-04T13:57:50;101428.31;;;15.95;66.22
48204;BME280;33994;50.998;5.864;2022-10-04T14:00:55;101427.31;;;15.99;66.02
48204;BME280;33994;50.998;5.864;2022-10-04T14:26:55;101418.97;;;16.14;66.37
48204;BME280;33994;50.998;5.864;2022-10-04T14:35:52;101417.09;;;16.18;67.04
48204;BME280;33994;50.998;5.864;2022-10-04T14:38:52;101404.78;;;16.17;67.22
48204;BME280;33994;50.998;5.864;2022-10-04T14:42:09;101402.13;;;16.18;67.36
48204;BME280;33994;50.998;5.864;2022-10-04T14:45:27;101390.66;;;16.19;66.54
48204;BME280;33994;50.998;5.864;2022-10-04T14:58:13;101401.25;;;16.18;67.04
48204;BME280;33994;50.998;5.864;2022-10-04T15:01:25;101388.94;;;16.18;66.98
48204;BME280;33994;50.998;5.864;2022-10-04T15:04:28;101388.84;;;16.21;67.15
48204;BME280;33994;50.998;5.864;2022-10-04T15:07:37;101391.50;;;16.21;67.33
48204;BME280;33994;50.998;5.864;2022-10-04T15:10:28;101402.00;;;16.23;67.49
48204;BME280;33994;50.998;5.864;2022-10-04T15:13:28;101402.75;;;16.26;67.17
48204;BME280;33994;50.998;5.864;2022-10-04T15:16:21;101396.47;;;16.30;67.37
48204;BME280;33994;50.998;5.864;2022-10-04T15:22:21;101401.81;;;16.29;67.36
48204;BME280;33994;50.998;5.864;2022-10-04T15:25:50;101398.41;;;16.25;67.57
48204;BME280;33994;50.998;5.864;2022-10-04T15:54:12;101379.81;;;15.99;67.50
48204;BME280;33994;50.998;5.864;2022-10-04T16:00:13;101385.34;;;15.90;67.24
48204;BME280;33994;50.998;5.864;2022-10-04T16:03:26;101382.91;;;15.84;67.18
48204;BME280;33994;50.998;5.864;2022-10-04T16:06:32;101397.88;;;15.81;67.38
48204;BME280;33994;50.998;5.864;2022-10-04T16:13:00;101392.84;;;15.72;67.45
48204;BME280;33994;50.998;5.864;2022-10-04T16:22:16;101394.91;;;15.61;67.47
48204;BME280;33994;50.998;5.864;2022-10-04T16:37:38;101377.78;;;15.43;67.95
48204;BME280;33994;50.998;5.864;2022-10-04T16:40:55;101385.75;;;15.42;68.30
48204;BME280;33994;50.998;5.864;2022-10-04T16:43:51;101388.47;;;15.39;68.21
48204;BME280;33994;50.998;5.864;2022-10-04T16:46:39;101390.31;;;15.35;68.33
48204;BME280;33994;50.998;5.864;2022-10-04T16:49:44;101383.34;;;15.32;68.89
48204;BME280;33994;50.998;5.864;2022-10-04T16:53:17;101369.41;;;15.27;69.49
48204;BME280;33994;50.998;5.864;2022-10-04T16:56:11;101371.31;;;15.22;69.75
48204;BME280;33994;50.998;5.864;2022-10-04T16:59:03;101378.44;;;15.19;69.96
48204;BME280;33994;50.998;5.864;2022-10-04T17:11:32;101403.47;;;15.01;71.55
48204;BME280;33994;50.998;5.864;2022-10-04T17:14:49;101397.50;;;14.93;72.13
48204;BME280;33994;50.998;5.864;2022-10-04T17:21:02;101428.44;;;14.84;72.71
48204;BME280;33994;50.998;5.864;2022-10-04T17:27:10;101431.38;;;14.71;73.45
48204;BME280;33994;50.998;5.864;2022-10-04T17:36:26;101447.41;;;14.58;74.34
48204;BME280;33994;50.998;5.864;2022-10-04T17:46:39;101457.44;;;14.40;75.79
48204;BME280;33994;50.998;5.864;2022-10-04T17:52:43;101456.00;;;14.26;76.27
48204;BME280;33994;50.998;5.864;2022-10-04T17:55:53;101451.69;;;14.21;76.38
48204;BME280;33994;50.998;5.864;2022-10-04T18:01:33;101459.78;;;14.10;76.86
48204;BME280;33994;50.998;5.864;2022-10-04T18:04:24;101452.88;;;14.06;77.01
48204;BME280;33994;50.998;5.864;2022-10-04T18:07:23;101449.44;;;14.02;77.14
48204;BME280;33994;50.998;5.864;2022-10-04T18:10:21;101444.16;;;14.02;77.09
48204;BME280;33994;50.998;5.864;2022-10-04T18:13:13;101438.94;;;14.01;77.07
48204;BME280;33994;50.998;5.864;2022-10-04T18:16:09;101453.88;;;13.99;77.19
48204;BME280;33994;50.998;5.864;2022-10-04T18:19:36;101457.44;;;13.96;77.42
48204;BME280;33994;50.998;5.864;2022-10-04T18:22:25;101462.72;;;13.95;77.21
48204;BME280;33994;50.998;5.864;2022-10-04T18:25:20;101467.16;;;13.91;77.68
48204;BME280;33994;50.998;5.864;2022-10-04T18:30:57;101478.72;;;13.82;78.34
48204;BME280;33994;50.998;5.864;2022-10-04T18:33:49;101483.22;;;13.77;78.47
48204;BME280;33994;50.998;5.864;2022-10-04T18:39:48;101477.28;;;13.66;79.45
48204;BME280;33994;50.998;5.864;2022-10-04T18:42:40;101476.47;;;13.61;79.70
48204;BME280;33994;50.998;5.864;2022-10-04T18:45:27;101483.53;;;13.59;79.69
48204;BME280;33994;50.998;5.864;2022-10-04T18:48:14;101479.22;;;13.55;79.99
48204;BME280;33994;50.998;5.864;2022-10-04T18:51:22;101463.53;;;13.50;80.57
48204;BME280;33994;50.998;5.864;2022-10-04T19:00:05;101449.59;;;13.44;80.58
48204;BME280;33994;50.998;5.864;2022-10-04T19:03:28;101436.50;;;13.41;80.52
48204;BME280;33994;50.998;5.864;2022-10-04T19:06:32;101442.69;;;13.36;80.54
48204;BME280;33994;50.998;5.864;2022-10-04T19:09:25;101417.34;;;13.34;80.75
48204;BME280;33994;50.998;5.864;2022-10-04T19:12:17;101430.56;;;13.29;80.66
48204;BME280;33994;50.998;5.864;2022-10-04T19:18:45;101437.59;;;13.27;80.84
48204;BME280;33994;50.998;5.864;2022-10-04T19:21:45;101441.19;;;13.23;80.70
48204;BME280;33994;50.998;5.864;2022-10-04T19:27:48;101442.16;;;13.16;81.11
48204;BME280;33994;50.998;5.864;2022-10-04T19:42:36;101444.78;;;13.16;81.27
48204;BME280;33994;50.998;5.864;2022-10-04T19:45:58;101440.47;;;13.12;81.54
48204;BME280;33994;50.998;5.864;2022-10-04T19:48:49;101444.00;;;13.08;81.60
48204;BME280;33994;50.998;5.864;2022-10-04T19:51:41;101448.41;;;13.07;81.75
48204;BME280;33994;50.998;5.864;2022-10-04T19:54:34;101451.03;;;13.07;81.76
48204;BME280;33994;50.998;5.864;2022-10-04T19:57:36;101456.31;;;13.06;81.98
48204;BME280;33994;50.998;5.864;2022-10-04T20:00:22;101460.72;;;13.05;81.95
48204;BME280;33994;50.998;5.864;2022-10-04T20:03:10;101454.63;;;13.02;81.98
48204;BME280;33994;50.998;5.864;2022-10-04T20:05:56;101453.81;;;12.98;82.06
48204;BME280;33994;50.998;5.864;2022-10-04T20:17:28;101441.81;;;12.80;83.36
48204;BME280;33994;50.998;5.864;2022-10-04T20:21:02;101432.25;;;12.76;83.46
48204;BME280;33994;50.998;5.864;2022-10-04T20:23:46;101429.72;;;12.69;84.13
48204;BME280;33994;50.998;5.864;2022-10-04T20:26:37;101427.22;;;12.61;84.21
48204;BME280;33994;50.998;5.864;2022-10-04T20:44:43;101419.78;;;12.29;86.11
48204;BME280;33994;50.998;5.864;2022-10-04T20:50:30;101437.31;;;12.25;86.38
48204;BME280;33994;50.998;5.864;2022-10-04T20:53:23;101434.69;;;12.22;86.66
48204;BME280;33994;50.998;5.864;2022-10-04T20:58:59;101430.34;;;12.24;86.58
48204;BME280;33994;50.998;5.864;2022-10-04T21:01:59;101431.19;;;12.20;87.25
48204;BME280;33994;50.998;5.864;2022-10-04T21:04:47;101436.50;;;12.17;87.09
48204;BME280;33994;50.998;5.864;2022-10-04T21:07:36;101427.81;;;12.12;87.41
48204;BME280;33994;50.998;5.864;2022-10-04T21:10:21;101426.94;;;12.11;87.47
48204;BME280;33994;50.998;5.864;2022-10-04T21:16:32;101416.44;;;12.13;88.09
48204;BME280;33994;50.998;5.864;2022-10-04T21:19:46;101419.09;;;12.10;88.44
48204;BME280;33994;50.998;5.864;2022-10-04T21:22:33;101420.88;;;12.06;88.25
48204;BME280;33994;50.998;5.864;2022-10-04T21:25:28;101419.16;;;12.04;88.71
48204;BME280;33994;50.998;5.864;2022-10-04T21:28:29;101422.69;;;12.03;88.80
48204;BME280;33994;50.998;5.864;2022-10-04T21:31:15;101424.44;;;12.01;88.76
48204;BME280;33994;50.998;5.864;2022-10-04T21:34:00;101429.75;;;11.98;89.14
48204;BME280;33994;50.998;5.864;2022-10-04T21:36:46;101430.56;;;12.00;89.22
48204;BME280;33994;50.998;5.864;2022-10-04T21:39:31;101436.69;;;12.02;89.19
48204;BME280;33994;50.998;5.864;2022-10-04T21:42:17;101443.66;;;12.03;89.21
48204;BME280;33994;50.998;5.864;2022-10-04T21:45:03;101434.00;;;12.05;89.20
48204;BME280;33994;50.998;5.864;2022-10-04T21:47:48;101434.88;;;12.04;89.33
48204;BME280;33994;50.998;5.864;2022-10-04T21:50:34;101434.91;;;12.02;89.58
48204;BME280;33994;50.998;5.864;2022-10-04T21:53:19;101422.69;;;12.03;89.68
48204;BME280;33994;50.998;5.864;2022-10-04T21:56:05;101424.41;;;12.04;89.76
48204;BME280;33994;50.998;5.864;2022-10-04T21:58:51;101442.75;;;12.05;89.87
48204;BME280;33994;50.998;5.864;2022-10-04T22:01:36;101429.66;;;12.04;89.77
48204;BME280;33994;50.998;5.864;2022-10-04T22:04:22;101421.78;;;12.04;89.74
48204;BME280;33994;50.998;5.864;2022-10-04T22:07:09;101412.19;;;12.03;89.87
48204;BME280;33994;50.998;5.864;2022-10-04T22:09:54;101413.91;;;12.04;89.97
48204;BME280;33994;50.998;5.864;2022-10-04T22:12:39;101415.72;;;12.02;89.95
48204;BME280;33994;50.998;5.864;2022-10-04T22:15:26;101411.31;;;12.02;90.12
48204;BME280;33994;50.998;5.864;2022-10-04T22:18:12;101420.09;;;12.01;90.26
48204;BME280;33994;50.998;5.864;2022-10-04T22:20:58;101427.06;;;12.02;90.28
48204;BME280;33994;50.998;5.864;2022-10-04T22:23:44;101420.94;;;12.02;90.24
48204;BME280;33994;50.998;5.864;2022-10-04T22:26:29;101429.69;;;12.02;90.32
48204;BME280;33994;50.998;5.864;2022-10-04T22:29:16;101414.81;;;12.03;90.54
48204;BME280;33994;50.998;5.864;2022-10-04T22:32:10;101426.19;;;12.02;90.73
48204;BME280;33994;50.998;5.864;2022-10-04T22:35:09;101427.91;;;12.03;90.83
48204;BME280;33994;50.998;5.864;2022-10-04T22:37:56;101428.81;;;12.02;90.72
48204;BME280;33994;50.998;5.864;2022-10-04T22:40:43;101414.84;;;12.00;90.80
48204;BME280;33994;50.998;5.864;2022-10-04T22:43:29;101408.72;;;11.99;90.94
48204;BME280;33994;50.998;5.864;2022-10-04T22:46:16;101412.22;;;12.00;91.10
48204;BME280;33994;50.998;5.864;2022-10-04T22:49:08;101412.22;;;12.00;91.29
48204;BME280;33994;50.998;5.864;2022-10-04T22:51:55;101425.34;;;12.01;91.23
48204;BME280;33994;50.998;5.864;2022-10-04T22:54:44;101416.56;;;12.01;91.45
48204;BME280;33994;50.998;5.864;2022-10-04T22:57:30;101416.59;;;11.99;91.37
48204;BME280;33994;50.998;5.864;2022-10-04T23:00:15;101417.50;;;11.97;91.53
48204;BME280;33994;50.998;5.864;2022-10-04T23:03:23;101416.66;;;11.95;91.98
48204;BME280;33994;50.998;5.864;2022-10-04T23:06:09;101407.06;;;11.93;92.26
48204;BME280;33994;50.998;5.864;2022-10-04T23:08:57;101412.34;;;11.90;92.06
48204;BME280;33994;50.998;5.864;2022-10-04T23:11:43;101417.56;;;11.90;92.05
48204;BME280;33994;50.998;5.864;2022-10-04T23:14:28;101413.19;;;11.91;92.14
48204;BME280;33994;50.998;5.864;2022-10-04T23:20:10;101407.97;;;11.89;92.55
48204;BME280;33994;50.998;5.864;2022-10-04T23:22:58;101406.22;;;11.88;92.71
48204;BME280;33994;50.998;5.864;2022-10-04T23:25:43;101402.78;;;11.86;92.88
48204;BME280;33994;50.998;5.864;2022-10-04T23:28:30;101403.63;;;11.85;92.98
48204;BME280;33994;50.998;5.864;2022-10-04T23:31:22;101401.91;;;11.86;93.30
48204;BME280;33994;50.998;5.864;2022-10-04T23:37:18;101389.66;;;11.85;93.54
48204;BME280;33994;50.998;5.864;2022-10-04T23:40:08;101379.19;;;11.86;93.58
48204;BME280;33994;50.998;5.864;2022-10-04T23:42:55;101380.00;;;11.88;93.76
48204;BME280;33994;50.998;5.864;2022-10-04T23:45:40;101366.06;;;11.88;93.87
48204;BME280;33994;50.998;5.864;2022-10-04T23:48:28;101367.84;;;11.86;93.94
48204;BME280;33994;50.998;5.864;2022-10-04T23:51:17;101366.94;;;11.85;94.07
48204;BME280;33994;50.998;5.864;2022-10-04T23:54:07;101359.97;;;11.84;94.22